Time;durP1;ratioP1;P1;durP2;ratioP2;P2;SDS_P1;SDS_P2;PMS_P1;PMS_P2;Temp;Humidity;BMP_temperature;BMP_pressure;BME280_temperature;BME280_humidity;BME280_pressure;Samples;Min_cycle;Max_cycle;Signal;HPM_P1;HPM_P2
2021/09/26 00:02:00;;;;;;;0.82;0.82;;;;;;;;;;5008589;28;20033;-83
2021/09/26 00:04:26;;;;;;;0.55;0.55;;;;;;;;;;5006345;28;20390;-82
2021/09/26 00:06:52;;;;;;;0.65;0.65;;;;;;;;;;5005673;28;20041;-83
2021/09/26 00:09:18;;;;;;;1.80;1.05;;;;;;;;;;5007662;28;20559;-83
2021/09/26 00:11:44;;;;;;;1.33;1.23;;;;;;;;;;5005786;28;20069;-83
2021/09/26 00:14:11;;;;;;;0.40;0.40;;;;;;;;;;5008711;28;20048;-83
2021/09/26 00:16:37;;;;;;;0.40;0.40;;;;;;;;;;5006005;28;20081;-83
2021/09/26 00:19:04;;;;;;;0.65;0.65;;;;;;;;;;5005639;28;20030;-81
2021/09/26 00:21:31;;;;;;;0.22;0.22;;;;;;;;;;5004930;28;20062;-81
2021/09/26 00:23:57;;;;;;;0.45;0.45;;;;;;;;;;5005738;28;20025;-82
2021/09/26 00:26:23;;;;;;;2.42;1.52;;;;;;;;;;5007485;28;20136;-82
2021/09/26 00:28:49;;;;;;;0.90;0.75;;;;;;;;;;5005403;28;20396;-79
2021/09/26 00:31:15;;;;;;;1.10;1.00;;;;;;;;;;5005546;28;20022;-78
2021/09/26 00:33:41;;;;;;;0.52;0.52;;;;;;;;;;5006030;28;20277;-78
2021/09/26 00:36:07;;;;;;;0.40;0.40;;;;;;;;;;5009773;28;20053;-79
2021/09/26 00:38:34;;;;;;;0.23;0.23;;;;;;;;;;5009798;28;20272;-79
2021/09/26 00:41:00;;;;;;;0.83;0.50;;;;;;;;;;5011335;28;20297;-79
2021/09/26 00:43:26;;;;;;;0.95;0.88;;;;;;;;;;5010797;28;20022;-79
2021/09/26 00:45:52;;;;;;;0.70;0.70;;;;;;;;;;5008830;28;20117;-78
2021/09/26 00:48:18;;;;;;;0.20;0.20;;;;;;;;;;5009290;28;20133;-78
2021/09/26 00:50:44;;;;;;;0.20;0.20;;;;;;;;;;5009010;28;20105;-79
2021/09/26 00:53:10;;;;;;;1.00;0.63;;;;;;;;;;5011665;28;20605;-78
2021/09/26 00:55:36;;;;;;;0.17;0.17;;;;;;;;;;5010350;28;20285;-80
2021/09/26 00:58:03;;;;;;;2.65;1.33;;;;;;;;;;5008809;28;20742;-79
2021/09/26 01:00:29;;;;;;;0.20;0.20;;;;;;;;;;5009325;28;20048;-79
2021/09/26 01:02:55;;;;;;;0.38;0.38;;;;;;;;;;5008400;28;20062;-79
2021/09/26 01:05:23;;;;;;;2.38;0.47;;;;;;;;;;5011310;28;20033;-79
2021/09/26 01:08:07;;;;;;;0.35;0.35;;;;;;;;;;5009366;28;20034;-80
2021/09/26 01:10:40;;;;;;;0.35;0.35;;;;;;;;;;5008431;28;20041;-77
2021/09/26 01:13:16;;;;;;;0.32;0.32;;;;;;;;;;5008548;28;20036;-77
2021/09/26 01:15:43;;;;;;;2.03;0.70;;;;;;;;;;5008562;28;20660;-77
2021/09/26 01:18:28;;;;;;;4.00;0.90;;;;;;;;;;5008852;28;20029;-79
2021/09/26 01:21:00;;;;;;;0.82;0.47;;;;;;;;;;4993048;28;20038;-79
2021/09/26 01:23:44;;;;;;;0.68;0.68;;;;;;;;;;5010155;28;20022;-80
2021/09/26 01:26:25;;;;;;;0.45;0.43;;;;;;;;;;5009820;28;20677;-79
2021/09/26 01:28:54;;;;;;;0.50;0.50;;;;;;;;;;5007893;28;20033;-78
2021/09/26 01:31:22;;;;;;;1.50;0.80;;;;;;;;;;5008152;28;20034;-79
2021/09/26 01:33:54;;;;;;;1.08;0.95;;;;;;;;;;5006032;28;20060;-80
2021/09/26 01:36:20;;;;;;;0.40;0.40;;;;;;;;;;5008043;28;20684;-81
2021/09/26 01:38:54;;;;;;;0.43;0.43;;;;;;;;;;5008513;28;20061;-81
2021/09/26 01:41:33;;;;;;;0.77;0.77;;;;;;;;;;5006687;28;20092;-81
2021/09/26 01:44:00;;;;;;;0.77;0.55;;;;;;;;;;5010238;28;20759;-81
2021/09/26 01:46:26;;;;;;;;;;;;;;;;;;5007782;28;20108;-80
2021/09/26 01:49:01;;;;;;;2.28;1.40;;;;;;;;;;5007969;28;20447;-81
2021/09/26 01:51:29;;;;;;;0.85;0.65;;;;;;;;;;5007719;28;20041;-82
2021/09/26 01:53:56;;;;;;;4.68;1.65;;;;;;;;;;5007760;28;20513;-79
2021/09/26 01:56:22;;;;;;;;;;;;;;;;;;5010537;28;20034;-81
2021/09/26 01:58:49;;;;;;;0.55;0.55;;;;;;;;;;5007967;28;19905;-82
2021/09/26 02:01:16;;;;;;;0.70;0.70;;;;;;;;;;5008918;28;20117;-81
2021/09/26 02:03:42;;;;;;;0.63;0.63;;;;;;;;;;5007553;28;20022;-81
2021/09/26 02:06:08;;;;;;;3.20;1.05;;;;;;;;;;5007838;28;20030;-82
2021/09/26 02:08:35;;;;;;;1.73;1.30;;;;;;;;;;5008043;28;20390;-81
2021/09/26 02:11:01;;;;;;;;;;;;;;;;;;5010400;28;20104;-81
2021/09/26 02:13:27;;;;;;;0.93;0.50;;;;;;;;;;5007614;28;20008;-81
2021/09/26 02:15:55;;;;;;;0.65;0.65;;;;;;;;;;5007158;28;20040;-83
2021/09/26 02:18:21;;;;;;;0.30;0.30;;;;;;;;;;5007764;28;20113;-83
2021/09/26 02:20:47;;;;;;;1.98;0.85;;;;;;;;;;5007392;28;20066;-81
2021/09/26 02:23:13;;;;;;;0.73;0.73;;;;;;;;;;5009941;28;20080;-81
2021/09/26 02:25:42;;;;;;;1.45;0.70;;;;;;;;;;5007160;28;20044;-82
2021/09/26 02:28:08;;;;;;;1.17;1.00;;;;;;;;;;5007087;28;20083;-82
2021/09/26 02:30:34;;;;;;;0.40;0.40;;;;;;;;;;5007191;28;20084;-81
2021/09/26 02:33:00;;;;;;;0.60;0.43;;;;;;;;;;5006993;28;20269;-81
2021/09/26 02:35:26;;;;;;;1.05;0.98;;;;;;;;;;5000023;28;20049;-81
2021/09/26 02:37:52;;;;;;;0.57;0.57;;;;;;;;;;5008717;28;20062;-81
2021/09/26 02:40:19;;;;;;;0.38;0.38;;;;;;;;;;5006558;28;20299;-81
2021/09/26 02:42:45;;;;;;;;;;;;;;;;;;5007015;28;20053;-82
2021/09/26 02:45:14;;;;;;;0.68;0.68;;;;;;;;;;5006913;28;19909;-81
2021/09/26 02:47:44;;;;;;;0.40;0.40;;;;;;;;;;5006799;28;20034;-81
2021/09/26 02:50:10;;;;;;;0.95;0.95;;;;;;;;;;5009529;28;20584;-78
2021/09/26 02:52:37;;;;;;;6.03;1.17;;;;;;;;;;5008049;28;20423;-79
2021/09/26 02:55:03;;;;;;;1.77;1.30;;;;;;;;;;5006515;28;20049;-79
2021/09/26 02:57:29;;;;;;;0.52;0.52;;;;;;;;;;5006319;28;20030;-79
2021/09/26 02:59:55;;;;;;;1.58;1.20;;;;;;;;;;5006658;28;20159;-81
2021/09/26 03:02:31;;;;;;;0.82;0.82;;;;;;;;;;5009395;28;20388;-81
2021/09/26 03:04:58;;;;;;;0.38;0.38;;;;;;;;;;5008510;28;20492;-81
2021/09/26 03:07:24;;;;;;;0.75;0.55;;;;;;;;;;5006227;28;20060;-81
2021/09/26 03:09:50;;;;;;;0.40;0.40;;;;;;;;;;5006423;28;20056;-81
2021/09/26 03:12:17;;;;;;;0.40;0.40;;;;;;;;;;5006236;28;20030;-82
2021/09/26 03:14:43;;;;;;;9.32;0.73;;;;;;;;;;5006483;28;20066;-82
2021/09/26 03:17:09;;;;;;;0.33;0.33;;;;;;;;;;5008843;28;20030;-82
2021/09/26 03:19:35;;;;;;;0.52;0.52;;;;;;;;;;5006421;28;20034;-83
2021/09/26 03:22:05;;;;;;;0.98;0.75;;;;;;;;;;5006175;28;20088;-81
2021/09/26 03:24:31;;;;;;;0.65;0.65;;;;;;;;;;5006059;28;20128;-81
2021/09/26 03:26:58;;;;;;;0.50;0.50;;;;;;;;;;5006129;28;21021;-82
2021/09/26 03:29:24;;;;;;;;;;;;;;;;;;5007563;28;20074;-81
2021/09/26 03:31:50;;;;;;;0.65;0.60;;;;;;;;;;5005319;28;19945;-81
2021/09/26 03:34:16;;;;;;;1.13;0.77;;;;;;;;;;5006268;28;20141;-81
2021/09/26 03:36:42;;;;;;;0.40;0.40;;;;;;;;;;5006358;28;20030;-80
2021/09/26 03:39:08;;;;;;;0.47;0.47;;;;;;;;;;5006131;28;20312;-82
2021/09/26 03:41:34;;;;;;;0.70;0.53;;;;;;;;;;5006322;28;20042;-82
2021/09/26 03:44:00;;;;;;;3.20;1.83;;;;;;;;;;5008354;28;20611;-82
2021/09/26 03:46:26;;;;;;;0.07;0.07;;;;;;;;;;5005837;28;20320;-81
2021/09/26 03:48:52;;;;;;;0.80;0.80;;;;;;;;;;5005799;28;20169;-80
2021/09/26 03:51:18;;;;;;;0.52;0.52;;;;;;;;;;5006018;28;20277;-80
2021/09/26 03:53:44;;;;;;;0.20;0.20;;;;;;;;;;5004400;28;20042;-80
2021/09/26 03:56:10;;;;;;;0.75;0.75;;;;;;;;;;5008548;28;20034;-80
2021/09/26 03:58:36;;;;;;;0.68;0.68;;;;;;;;;;5005797;28;20033;-81
2021/09/26 04:01:03;;;;;;;2.10;0.77;;;;;;;;;;5005477;28;20120;-80
2021/09/26 04:03:29;;;;;;;0.20;0.20;;;;;;;;;;5005704;28;20022;-81
2021/09/26 04:05:55;;;;;;;0.43;0.43;;;;;;;;;;5005773;28;20464;-81
2021/09/26 04:08:21;;;;;;;0.50;0.50;;;;;;;;;;5009931;28;20275;-80
2021/09/26 04:10:47;;;;;;;2.87;1.53;;;;;;;;;;5009639;28;20121;-80
2021/09/26 04:13:13;;;;;;;1.43;0.53;;;;;;;;;;5009317;28;20065;-80
2021/09/26 04:15:39;;;;;;;0.97;0.97;;;;;;;;;;5010056;28;20312;-80
2021/09/26 04:18:05;;;;;;;0.43;0.20;;;;;;;;;;5009658;28;20029;-80
2021/09/26 04:20:31;;;;;;;0.50;0.50;;;;;;;;;;5010621;28;20292;-80
2021/09/26 04:22:57;;;;;;;0.13;0.13;;;;;;;;;;5010941;28;20120;-81
2021/09/26 04:25:23;;;;;;;0.27;0.27;;;;;;;;;;5009249;28;20501;-81
2021/09/26 04:27:49;;;;;;;0.20;0.20;;;;;;;;;;5009371;28;20295;-81
2021/09/26 04:30:15;;;;;;;0.25;0.25;;;;;;;;;;5009376;28;20036;-81
2021/09/26 04:32:41;;;;;;;0.53;0.53;;;;;;;;;;5009749;28;20508;-81
2021/09/26 04:35:07;;;;;;;0.80;0.80;;;;;;;;;;5012119;28;20066;-81
2021/09/26 04:37:35;;;;;;;1.17;1.00;;;;;;;;;;5009230;28;20117;-80
2021/09/26 04:40:01;;;;;;;0.40;0.40;;;;;;;;;;5009333;28;20021;-81
2021/09/26 04:42:27;;;;;;;1.50;1.10;;;;;;;;;;5009282;28;20109;-80
2021/09/26 04:44:53;;;;;;;2.75;0.60;;;;;;;;;;5007751;28;20460;-80
2021/09/26 04:47:19;;;;;;;0.40;0.40;;;;;;;;;;5007448;28;20488;-80
2021/09/26 04:49:45;;;;;;;0.22;0.22;;;;;;;;;;5008945;28;20044;-81
2021/09/26 04:52:11;;;;;;;0.13;0.13;;;;;;;;;;5009277;28;20444;-82
2021/09/26 04:54:39;;;;;;;0.27;0.20;;;;;;;;;;5009497;28;20034;-82
2021/09/26 04:57:05;;;;;;;0.77;0.50;;;;;;;;;;5008541;28;20356;-79
2021/09/26 04:59:31;;;;;;;0.33;0.27;;;;;;;;;;5010131;28;20022;-79
2021/09/26 05:01:57;;;;;;;0.15;0.15;;;;;;;;;;5010343;28;20328;-82
2021/09/26 05:04:23;;;;;;;0.23;0.23;;;;;;;;;;5008485;28;20034;-82
2021/09/26 05:06:49;;;;;;;0.10;0.10;;;;;;;;;;5008719;28;20029;-83
2021/09/26 05:09:15;;;;;;;0.30;0.30;;;;;;;;;;5008738;28;20160;-81
2021/09/26 05:11:41;;;;;;;0.30;0.30;;;;;;;;;;5009144;28;20068;-81
2021/09/26 05:14:07;;;;;;;2.80;0.73;;;;;;;;;;5011324;28;20703;-82
2021/09/26 05:16:33;;;;;;;0.07;0.07;;;;;;;;;;5007912;28;20834;-80
2021/09/26 05:18:59;;;;;;;0.40;0.40;;;;;;;;;;5008483;28;20036;-80
2021/09/26 05:21:25;;;;;;;0.10;0.10;;;;;;;;;;5007540;28;20034;-81
2021/09/26 05:23:51;;;;;;;0.17;0.17;;;;;;;;;;4993156;28;20030;-81
2021/09/26 05:26:18;;;;;;;0.10;0.10;;;;;;;;;;5010468;28;20289;-81
2021/09/26 05:28:44;;;;;;;1.30;0.70;;;;;;;;;;5008275;28;20412;-81
2021/09/26 05:31:10;;;;;;;0.50;0.50;;;;;;;;;;5006448;28;20292;-80
2021/09/26 05:33:36;;;;;;;0.37;0.37;;;;;;;;;;4999610;28;20038;-81
2021/09/26 05:36:02;;;;;;;5.13;1.03;;;;;;;;;;5003032;28;20727;-81
2021/09/26 05:38:28;;;;;;;0.27;0.20;;;;;;;;;;5001618;28;20284;-81
2021/09/26 05:40:54;;;;;;;0.63;0.63;;;;;;;;;;4996448;28;20046;-84
2021/09/26 05:43:20;;;;;;;0.23;0.23;;;;;;;;;;4996668;28;20277;-82
2021/09/26 05:45:48;;;;;;;0.43;0.43;;;;;;;;;;4997324;28;20501;-87
2021/09/26 05:48:14;;;;;;;0.28;0.28;;;;;;;;;;4999640;28;20168;-82
2021/09/26 05:50:40;;;;;;;1.17;0.80;;;;;;;;;;4993395;28;20030;-83
2021/09/26 05:53:06;;;;;;;0.50;0.50;;;;;;;;;;4998853;28;20034;-83
2021/09/26 05:55:32;;;;;;;1.05;1.05;;;;;;;;;;4994661;28;21126;-83
2021/09/26 05:57:58;;;;;;;0.20;0.20;;;;;;;;;;5000286;28;20672;-82
2021/09/26 06:00:26;;;;;;;0.43;0.43;;;;;;;;;;5002564;28;20314;-82
2021/09/26 06:02:54;;;;;;;0.38;0.38;;;;;;;;;;4989998;28;21450;-82
2021/09/26 06:05:22;;;;;;;0.20;0.20;;;;;;;;;;4993317;28;20560;-82
2021/09/26 06:07:48;;;;;;;1.00;0.90;;;;;;;;;;4993119;28;20038;-82
2021/09/26 06:10:15;;;;;;;1.53;1.10;;;;;;;;;;4992746;28;20398;-82
2021/09/26 06:12:41;;;;;;;0.75;0.75;;;;;;;;;;4995803;28;20308;-81
2021/09/26 06:15:07;;;;;;;0.20;0.20;;;;;;;;;;5003369;28;20037;-81
2021/09/26 06:17:34;;;;;;;0.55;0.55;;;;;;;;;;4999020;28;20042;-81
2021/09/26 06:20:00;;;;;;;0.10;0.10;;;;;;;;;;4994890;28;20026;-81
2021/09/26 06:22:26;;;;;;;1.23;0.25;;;;;;;;;;4995565;28;20723;-82
2021/09/26 06:24:53;;;;;;;0.43;0.43;;;;;;;;;;5003597;28;20038;-86
2021/09/26 06:27:19;;;;;;;2.10;0.38;;;;;;;;;;4996481;28;20050;-87
2021/09/26 06:29:46;;;;;;;0.20;0.20;;;;;;;;;;4997263;28;20109;-88
2021/09/26 06:32:12;;;;;;;0.40;0.40;;;;;;;;;;4997227;28;20040;-88
2021/09/26 06:34:38;;;;;;;0.80;0.73;;;;;;;;;;4995969;28;20041;-87
2021/09/26 06:37:05;;;;;;;0.32;0.32;;;;;;;;;;4998626;28;20285;-89
2021/09/26 06:39:32;;;;;;;1.65;1.15;;;;;;;;;;5001830;28;20030;-88
2021/09/26 06:41:58;;;;;;;0.55;0.55;;;;;;;;;;5001910;28;20137;-88
2021/09/26 06:44:24;;;;;;;1.75;1.20;;;;;;;;;;5005352;28;20030;-88
2021/09/26 06:46:50;;;;;;;8.13;1.33;;;;;;;;;;5002325;28;20108;-88
2021/09/26 06:49:16;;;;;;;0.20;0.20;;;;;;;;;;5001063;28;20277;-86
2021/09/26 06:51:42;;;;;;;2.25;1.35;;;;;;;;;;5000497;28;20481;-87
2021/09/26 06:54:08;;;;;;;0.40;0.40;;;;;;;;;;5001323;28;20034;-87
2021/09/26 06:56:34;;;;;;;0.57;0.57;;;;;;;;;;5003074;28;20350;-87
2021/09/26 06:59:00;;;;;;;0.40;0.17;;;;;;;;;;5002498;28;20044;-88
2021/09/26 07:01:26;;;;;;;0.00;0.00;;;;;;;;;;5000631;28;20040;-88
2021/09/26 07:03:52;;;;;;;0.50;0.50;;;;;;;;;;5002539;28;20044;-82
2021/09/26 07:06:18;;;;;;;1.03;0.90;;;;;;;;;;5000567;28;20276;-87
2021/09/26 07:08:44;;;;;;;0.30;0.30;;;;;;;;;;5002703;28;20359;-88
2021/09/26 07:11:10;;;;;;;0.28;0.13;;;;;;;;;;5005352;28;20318;-89
2021/09/26 07:13:36;;;;;;;1.05;0.68;;;;;;;;;;5004200;28;20100;-88
2021/09/26 07:16:03;;;;;;;0.50;0.50;;;;;;;;;;5001494;28;20050;-88
2021/09/26 07:18:29;;;;;;;5.80;0.82;;;;;;;;;;5002300;28;20034;-87
2021/09/26 07:20:55;;;;;;;0.20;0.20;;;;;;;;;;5001376;28;20111;-87
2021/09/26 07:23:21;;;;;;;0.32;0.32;;;;;;;;;;5002606;28;20064;-88
2021/09/26 07:25:47;;;;;;;0.22;0.22;;;;;;;;;;5000657;28;20079;-88
2021/09/26 07:28:14;;;;;;;0.10;0.10;;;;;;;;;;5002581;28;20042;-90
2021/09/26 07:30:40;;;;;;;0.30;0.30;;;;;;;;;;5003447;28;20116;-86
2021/09/26 07:33:06;;;;;;;10.70;1.35;;;;;;;;;;5004919;28;20030;-87
2021/09/26 07:35:32;;;;;;;0.37;0.37;;;;;;;;;;5003118;28;20117;-89
2021/09/26 07:37:58;;;;;;;0.70;0.32;;;;;;;;;;5001064;28;20870;-89
2021/09/26 07:40:24;;;;;;;0.30;0.30;;;;;;;;;;5001604;28;20132;-90
2021/09/26 07:42:50;;;;;;;0.35;0.35;;;;;;;;;;5003502;28;20022;-88
2021/09/26 07:45:16;;;;;;;0.35;0.32;;;;;;;;;;5004420;28;20814;-90
2021/09/26 07:47:42;;;;;;;0.22;0.22;;;;;;;;;;5003922;28;20029;-88
2021/09/26 07:50:09;;;;;;;0.73;0.30;;;;;;;;;;4999641;28;20038;-90
2021/09/26 07:52:35;;;;;;;0.20;0.20;;;;;;;;;;4984184;28;20061;-90
2021/09/26 07:55:02;;;;;;;0.20;0.20;;;;;;;;;;5002007;28;20037;-90
2021/09/26 07:57:28;;;;;;;0.10;0.10;;;;;;;;;;5002137;28;20025;-90
2021/09/26 07:59:54;;;;;;;0.73;0.52;;;;;;;;;;5002689;28;20109;-89
2021/09/26 08:02:20;;;;;;;1.15;0.32;;;;;;;;;;4985312;28;20034;-90
2021/09/26 08:04:46;;;;;;;0.30;0.30;;;;;;;;;;5001695;28;20053;-80
2021/09/26 08:07:12;;;;;;;0.08;0.08;;;;;;;;;;5001508;28;20057;-84
2021/09/26 08:09:39;;;;;;;0.30;0.30;;;;;;;;;;5001174;28;20026;-80
2021/09/26 08:12:05;;;;;;;0.30;0.30;;;;;;;;;;5000466;28;20041;-81
2021/09/26 08:14:31;;;;;;;;;;;;;;;;;;5000671;28;20050;-79
2021/09/26 08:16:57;;;;;;;;;;;;;;;;;;5003063;28;19914;-80
2021/09/26 08:19:25;;;;;;;;;;;;;;;;;;5001791;28;20380;-80
2021/09/26 08:21:51;;;;;;;0.17;0.17;;;;;;;;;;5001016;28;19921;-80
2021/09/26 08:24:18;;;;;;;2.08;0.65;;;;;;;;;;4999730;28;20028;-80
2021/09/26 08:26:44;;;;;;;0.35;0.30;;;;;;;;;;5001472;28;20058;-79
2021/09/26 08:29:10;;;;;;;0.15;0.15;;;;;;;;;;5003890;28;20129;-79
2021/09/26 08:31:36;;;;;;;0.10;0.10;;;;;;;;;;4999528;28;20062;-80
2021/09/26 08:34:02;;;;;;;0.40;0.40;;;;;;;;;;4999594;28;20030;-77
2021/09/26 08:36:28;;;;;;;0.03;0.03;;;;;;;;;;4998531;28;20125;-77
2021/09/26 08:38:54;;;;;;;0.45;0.45;;;;;;;;;;4997981;28;20030;-77
2021/09/26 08:41:20;;;;;;;0.45;0.43;;;;;;;;;;5002740;28;20045;-77
2021/09/26 08:43:47;;;;;;;0.10;0.10;;;;;;;;;;4998863;28;20032;-79
2021/09/26 08:46:15;;;;;;;0.40;0.28;;;;;;;;;;4998800;28;20156;-78
2021/09/26 08:48:42;;;;;;;0.00;0.00;;;;;;;;;;4999425;28;20018;-78
2021/09/26 08:51:08;;;;;;;0.40;0.40;;;;;;;;;;5001018;28;20021;-80
2021/09/26 08:53:34;;;;;;;0.43;0.28;;;;;;;;;;5001051;28;20311;-80
2021/09/26 08:56:00;;;;;;;0.30;0.30;;;;;;;;;;5005215;28;20460;-80
2021/09/26 08:58:27;;;;;;;0.68;0.55;;;;;;;;;;5002622;28;20091;-80
2021/09/26 09:00:53;;;;;;;0.28;0.28;;;;;;;;;;5003646;28;20112;-80
2021/09/26 09:03:20;;;;;;;0.22;0.22;;;;;;;;;;5004824;28;20087;-81
2021/09/26 09:05:51;;;;;;;0.20;0.20;;;;;;;;;;4999068;28;20088;-79
2021/09/26 09:08:19;;;;;;;0.28;0.28;;;;;;;;;;5002567;28;20461;-80
2021/09/26 09:10:58;;;;;;;2.75;0.45;;;;;;;;;;5002406;28;20026;-78
2021/09/26 09:13:29;;;;;;;0.10;0.10;;;;;;;;;;5003428;28;20033;-79
2021/09/26 09:15:59;;;;;;;3.20;1.65;;;;;;;;;;5000178;28;20109;-79
2021/09/26 09:18:35;;;;;;;0.47;0.47;;;;;;;;;;5004228;28;20034;-79
2021/09/26 09:21:01;;;;;;;0.90;0.90;;;;;;;;;;4988002;28;20058;-80
2021/09/26 09:23:27;;;;;;;0.30;0.30;;;;;;;;;;5004562;28;20041;-80
2021/09/26 09:25:55;;;;;;;1.98;0.60;;;;;;;;;;5018769;28;20042;-80
2021/09/26 09:28:26;;;;;;;0.52;0.52;;;;;;;;;;4994927;28;20468;-80
2021/09/26 09:30:52;;;;;;;0.38;0.38;;;;;;;;;;4987766;28;20037;-80
2021/09/26 09:33:18;;;;;;;0.30;0.30;;;;;;;;;;4993414;28;20041;-79
2021/09/26 09:35:52;;;;;;;0.75;0.38;;;;;;;;;;5002148;28;20030;-80
2021/09/26 09:38:19;;;;;;;0.90;0.52;;;;;;;;;;5006041;28;20536;-81
2021/09/26 09:40:48;;;;;;;0.28;0.28;;;;;;;;;;5001322;28;20044;-80
2021/09/26 09:43:14;;;;;;;0.93;0.47;;;;;;;;;;5003719;28;20053;-79
2021/09/26 09:45:48;;;;;;;0.77;0.50;;;;;;;;;;4998977;28;20030;-80
2021/09/26 09:48:18;;;;;;;1.17;0.35;;;;;;;;;;4997916;28;20026;-80
2021/09/26 09:50:52;;;;;;;2.92;1.02;;;;;;;;;;5002727;28;20881;-80
2021/09/26 09:53:23;;;;;;;0.52;0.28;;;;;;;;;;5006013;28;20488;-80
2021/09/26 09:56:06;;;;;;;0.30;0.30;;;;;;;;;;5001950;28;20036;-80
2021/09/26 09:58:34;;;;;;;0.70;0.68;;;;;;;;;;4994870;28;20034;-81
2021/09/26 10:01:00;;;;;;;0.52;0.40;;;;;;;;;;4991841;28;20037;-79
2021/09/26 10:03:37;;;;;;;1.75;0.65;;;;;;;;;;5008932;28;20038;-79
2021/09/26 10:06:18;;;;;;;0.40;0.40;;;;;;;;;;4991871;28;20532;-83
2021/09/26 10:08:44;;;;;;;2.63;0.57;;;;;;;;;;4996597;28;20602;-82
2021/09/26 10:11:10;;;;;;;0.73;0.73;;;;;;;;;;4999162;28;20038;-84
2021/09/26 10:13:36;;;;;;;0.20;0.20;;;;;;;;;;4994244;28;20045;-82
2021/09/26 10:16:09;;;;;;;0.10;0.05;;;;;;;;;;4995670;28;20042;-80
2021/09/26 10:18:35;;;;;;;0.25;0.25;;;;;;;;;;4994748;28;20029;-80
2021/09/26 10:21:01;;;;;;;;;;;;;;;;;;4993691;28;20129;-79
2021/09/26 10:23:27;;;;;;;0.10;0.10;;;;;;;;;;4992150;28;20067;-86
2021/09/26 10:25:55;;;;;;;0.28;0.28;;;;;;;;;;4990489;28;20054;-85
2021/09/26 10:28:24;;;;;;;0.38;0.38;;;;;;;;;;4994520;28;20022;-88
2021/09/26 10:30:50;;;;;;;0.32;0.20;;;;;;;;;;4993443;28;20030;-82
2021/09/26 10:33:16;;;;;;;0.80;0.60;;;;;;;;;;4990634;28;20034;-80
2021/09/26 10:35:44;;;;;;;0.45;0.25;;;;;;;;;;4990218;28;20040;-80
2021/09/26 10:38:11;;;;;;;0.20;0.20;;;;;;;;;;4990023;28;20033;-81
2021/09/26 10:40:40;;;;;;;0.40;0.40;;;;;;;;;;4987836;28;20034;-81
2021/09/26 10:43:32;;;;;;;0.22;0.22;;;;;;;;;;4992421;28;20032;-81
2021/09/26 10:46:17;;;;;;;0.05;0.05;;;;;;;;;;4990202;28;20041;-81
2021/09/26 10:49:02;;;;;;;2.38;0.30;;;;;;;;;;4991991;28;20093;-80
2021/09/26 10:51:51;;;;;;;0.10;0.10;;;;;;;;;;4991934;28;20112;-83
2021/09/26 10:54:23;;;;;;;0.10;0.10;;;;;;;;;;4992458;28;20029;-80
2021/09/26 10:56:50;;;;;;;1.45;0.17;;;;;;;;;;4990687;28;20095;-81
2021/09/26 10:59:16;;;;;;;0.13;0.08;;;;;;;;;;4994525;28;20101;-80
2021/09/26 11:01:42;;;;;;;2.60;0.63;;;;;;;;;;4992624;28;20076;-80
2021/09/26 11:04:15;;;;;;;0.38;0.10;;;;;;;;;;4989411;28;20032;-79
2021/09/26 11:06:41;;;;;;;0.00;0.00;;;;;;;;;;4992201;28;20078;-79
2021/09/26 11:09:09;;;;;;;;;;;;;;;;;;4990630;28;20081;-79
2021/09/26 11:11:50;;;;;;;0.28;0.28;;;;;;;;;;4985422;28;20015;-79
2021/09/26 11:14:16;;;;;;;0.10;0.10;;;;;;;;;;4988939;28;20058;-79
2021/09/26 11:16:42;;;;;;;;;;;;;;;;;;4992405;28;20034;-79
2021/09/26 11:19:15;;;;;;;0.95;0.70;;;;;;;;;;4996509;28;19913;-79
2021/09/26 11:21:42;;;;;;;0.13;0.13;;;;;;;;;;4991160;28;20831;-79
2021/09/26 11:24:10;;;;;;;0.32;0.32;;;;;;;;;;4994217;28;20022;-79
2021/09/26 11:26:55;;;;;;;0.00;0.00;;;;;;;;;;4990776;28;20046;-79
2021/09/26 11:29:21;;;;;;;0.00;0.00;;;;;;;;;;4991399;28;20097;-79
2021/09/26 11:31:47;;;;;;;0.55;0.55;;;;;;;;;;4991711;28;20040;-79
2021/09/26 11:34:33;;;;;;;1.95;0.82;;;;;;;;;;4990988;28;20075;-79
2021/09/26 11:36:59;;;;;;;0.20;0.20;;;;;;;;;;4989468;28;20779;-79
2021/09/26 11:39:27;;;;;;;1.15;0.40;;;;;;;;;;4993555;28;20041;-79
2021/09/26 11:41:53;;;;;;;0.03;0.03;;;;;;;;;;4986196;28;20164;-80
2021/09/26 11:44:20;;;;;;;0.10;0.10;;;;;;;;;;5000142;28;20556;-80
2021/09/26 11:46:52;;;;;;;0.70;0.57;;;;;;;;;;4988836;28;20062;-79
2021/09/26 11:49:19;;;;;;;0.05;0.05;;;;;;;;;;4989117;28;20591;-79
2021/09/26 11:51:48;;;;;;;0.10;0.10;;;;;;;;;;4993293;28;20033;-80
2021/09/26 11:54:14;;;;;;;0.20;0.20;;;;;;;;;;4986968;28;20096;-81
2021/09/26 11:56:40;;;;;;;;;;;;;;;;;;4990171;28;20046;-80
2021/09/26 11:59:09;;;;;;;0.85;0.43;;;;;;;;;;4998605;28;19975;-81
2021/09/26 12:01:42;;;;;;;0.22;0.20;;;;;;;;;;4990133;28;20041;-81
2021/09/26 12:04:08;;;;;;;0.10;0.10;;;;;;;;;;4993919;28;20058;-80
2021/09/26 12:06:35;;;;;;;0.65;0.28;;;;;;;;;;4994173;28;20033;-80
2021/09/26 12:09:01;;;;;;;0.05;0.05;;;;;;;;;;4991753;28;20564;-81
2021/09/26 12:11:27;;;;;;;0.17;0.17;;;;;;;;;;4988081;28;20030;-81
2021/09/26 12:13:57;;;;;;;3.22;1.08;;;;;;;;;;5004047;28;20038;-81
2021/09/26 12:16:24;;;;;;;0.10;0.10;;;;;;;;;;4992080;28;20045;-81
2021/09/26 12:18:59;;;;;;;0.20;0.20;;;;;;;;;;4993758;28;20092;-85
2021/09/26 12:21:27;;;;;;;0.32;0.32;;;;;;;;;;4995298;28;20045;-81
2021/09/26 12:24:02;;;;;;;0.00;0.00;;;;;;;;;;4994255;28;20220;-81
2021/09/26 12:26:30;;;;;;;0.17;0.17;;;;;;;;;;4985527;28;20092;-80
2021/09/26 12:29:04;;;;;;;0.15;0.15;;;;;;;;;;4994487;28;20065;-80
2021/09/26 12:31:31;;;;;;;0.20;0.20;;;;;;;;;;5000277;28;20030;-80
2021/09/26 12:33:58;;;;;;;0.20;0.20;;;;;;;;;;4999915;28;20055;-80
2021/09/26 12:36:24;;;;;;;0.00;0.00;;;;;;;;;;4995319;28;20036;-80
2021/09/26 12:38:55;;;;;;;0.15;0.15;;;;;;;;;;4998189;28;20035;-81
2021/09/26 12:41:21;;;;;;;0.52;0.52;;;;;;;;;;4992937;28;20035;-80
2021/09/26 12:43:51;;;;;;;0.45;0.30;;;;;;;;;;5004460;28;20055;-81
2021/09/26 12:46:20;;;;;;;0.15;0.15;;;;;;;;;;5011230;28;20121;-80
2021/09/26 12:48:46;;;;;;;0.43;0.25;;;;;;;;;;4992090;28;20055;-80
2021/09/26 12:51:34;;;;;;;0.00;0.00;;;;;;;;;;4993827;28;20041;-81
2021/09/26 12:54:02;;;;;;;0.08;0.08;;;;;;;;;;4997131;28;20025;-81
2021/09/26 12:56:29;;;;;;;0.30;0.30;;;;;;;;;;5003266;28;20076;-81
2021/09/26 12:58:57;;;;;;;0.00;0.00;;;;;;;;;;4998224;28;20026;-80
2021/09/26 13:01:26;;;;;;;0.03;0.03;;;;;;;;;;4989918;28;20417;-81
2021/09/26 13:04:12;;;;;;;0.20;0.20;;;;;;;;;;4991109;28;20045;-81
2021/09/26 13:06:47;;;;;;;0.10;0.10;;;;;;;;;;4993081;28;20044;-81
2021/09/26 13:09:15;;;;;;;0.00;0.00;;;;;;;;;;4994873;28;20034;-81
2021/09/26 13:11:42;;;;;;;0.30;0.30;;;;;;;;;;4992739;28;20034;-80
2021/09/26 13:14:14;;;;;;;0.00;0.00;;;;;;;;;;4998078;28;20096;-81
2021/09/26 13:16:45;;;;;;;0.10;0.10;;;;;;;;;;4994928;28;20034;-80
2021/09/26 13:19:29;;;;;;;0.13;0.13;;;;;;;;;;4989415;28;20038;-79
2021/09/26 13:22:00;;;;;;;0.25;0.05;;;;;;;;;;4993855;28;20520;-81
2021/09/26 13:24:26;;;;;;;0.98;0.35;;;;;;;;;;4996341;28;20097;-81
2021/09/26 13:26:53;;;;;;;0.32;0.32;;;;;;;;;;4994241;28;20058;-81
2021/09/26 13:29:29;;;;;;;0.20;0.20;;;;;;;;;;4999906;28;20105;-81
2021/09/26 13:31:57;;;;;;;3.67;0.32;;;;;;;;;;4995291;28;20034;-81
2021/09/26 13:34:42;;;;;;;0.20;0.20;;;;;;;;;;4993864;28;20125;-81
2021/09/26 13:37:10;;;;;;;1.67;0.40;;;;;;;;;;4993616;28;20041;-81
2021/09/26 13:39:39;;;;;;;0.00;0.00;;;;;;;;;;4995489;28;20029;-82
2021/09/26 13:42:08;;;;;;;0.10;0.10;;;;;;;;;;5003647;28;20448;-81
2021/09/26 13:44:34;;;;;;;0.20;0.20;;;;;;;;;;5001454;28;20551;-81
2021/09/26 13:47:00;;;;;;;0.10;0.10;;;;;;;;;;5014162;28;20030;-81
2021/09/26 13:49:26;;;;;;;0.45;0.45;;;;;;;;;;4993305;28;20037;-82
2021/09/26 13:51:52;;;;;;;0.00;0.00;;;;;;;;;;4992626;28;20034;-81
2021/09/26 13:54:20;;;;;;;0.20;0.20;;;;;;;;;;5002074;28;20058;-81
2021/09/26 13:56:46;;;;;;;0.05;0.05;;;;;;;;;;4989897;28;20031;-90
2021/09/26 13:59:12;;;;;;;0.20;0.20;;;;;;;;;;5018277;28;20121;-81
2021/09/26 14:01:38;;;;;;;0.10;0.10;;;;;;;;;;4999415;28;20654;-82
2021/09/26 14:04:05;;;;;;;0.17;0.17;;;;;;;;;;4999035;28;20026;-82
2021/09/26 14:06:31;;;;;;;0.00;0.00;;;;;;;;;;4998829;28;20784;-82
2021/09/26 14:08:58;;;;;;;0.28;0.20;;;;;;;;;;4997772;28;20042;-81
2021/09/26 14:11:24;;;;;;;0.35;0.35;;;;;;;;;;5002308;28;20030;-81
2021/09/26 14:13:51;;;;;;;0.30;0.10;;;;;;;;;;5000107;28;20038;-81
2021/09/26 14:16:17;;;;;;;;;;;;;;;;;;4994928;28;20041;-82
2021/09/26 14:18:44;;;;;;;0.20;0.08;;;;;;;;;;4991309;28;19918;-82
2021/09/26 14:21:10;;;;;;;0.32;0.32;;;;;;;;;;4991840;28;20030;-81
2021/09/26 14:23:36;;;;;;;0.35;0.20;;;;;;;;;;4991229;28;20038;-81
2021/09/26 14:26:03;;;;;;;0.15;0.15;;;;;;;;;;4995507;28;20066;-81
2021/09/26 14:28:30;;;;;;;0.00;0.00;;;;;;;;;;4993946;28;20057;-81
2021/09/26 14:30:56;;;;;;;;;;;;;;;;;;4990938;28;20084;-82
2021/09/26 14:33:22;;;;;;;0.22;0.13;;;;;;;;;;4994231;28;19988;-82
2021/09/26 14:35:48;;;;;;;0.08;0.08;;;;;;;;;;4999140;28;20056;-82
2021/09/26 14:38:14;;;;;;;0.15;0.10;;;;;;;;;;5000439;28;20030;-82
2021/09/26 14:40:41;;;;;;;0.15;0.15;;;;;;;;;;4996743;28;20041;-81
2021/09/26 14:43:07;;;;;;;;;;;;;;;;;;4998820;28;20038;-82
2021/09/26 14:45:33;;;;;;;0.00;0.00;;;;;;;;;;4997066;28;20292;-79
2021/09/26 14:47:59;;;;;;;0.00;0.00;;;;;;;;;;4995289;28;20037;-81
2021/09/26 14:50:25;;;;;;;0.10;0.10;;;;;;;;;;4999571;28;20079;-81
2021/09/26 14:52:51;;;;;;;0.22;0.22;;;;;;;;;;4996465;28;20064;-82